createdAt,value
2022-11-28T00:01:41.179Z,67.00
2022-11-28T00:04:09.967Z,58.80
2022-11-28T00:06:39.077Z,66.37
2022-11-28T00:09:08.005Z,66.03
2022-11-28T00:11:38.027Z,67.17
2022-11-28T00:14:06.707Z,71.37
2022-11-28T00:16:35.899Z,60.47
2022-11-28T00:19:07.383Z,73.83
2022-11-28T00:21:35.912Z,63.53
2022-11-28T00:24:04.351Z,63.27
2022-11-28T00:26:34.074Z,69.43
2022-11-28T00:29:05.842Z,55.97
2022-11-28T00:31:35.860Z,55.80
2022-11-28T00:34:04.994Z,56.23
2022-11-28T00:36:33.399Z,45.83
2022-11-28T00:39:01.833Z,63.57
2022-11-28T00:41:31.371Z,51.80
2022-11-28T00:43:59.876Z,63.30
2022-11-28T00:46:29.695Z,52.13
2022-11-28T00:48:59.383Z,65.67
2022-11-28T00:51:28.605Z,51.57
2022-11-28T00:53:57.829Z,55.30
2022-11-28T00:56:27.307Z,49.40
2022-11-28T00:58:56.322Z,44.97
2022-11-28T01:01:25.604Z,47.63
2022-11-28T01:03:57.235Z,62.87
2022-11-28T01:06:26.540Z,64.97
2022-11-28T01:08:55.427Z,60.67
2022-11-28T01:11:24.526Z,54.57
2022-11-28T01:13:53.018Z,46.60
2022-11-28T01:16:21.511Z,50.07
2022-11-28T01:18:50.054Z,51.77
2022-11-28T01:21:19.987Z,43.87
2022-11-28T01:23:48.810Z,56.07
2022-11-28T01:26:18.617Z,64.13
2022-11-28T01:28:48.359Z,63.53
2022-11-28T01:31:19.218Z,55.87
2022-11-28T01:33:49.806Z,69.43
2022-11-28T01:36:20.534Z,64.50
2022-11-28T01:38:49.139Z,59.77
2022-11-28T01:41:18.547Z,54.33
2022-11-28T01:44:05.027Z,58.87
2022-11-28T01:46:34.021Z,56.73
2022-11-28T01:49:04.977Z,55.83
2022-11-28T01:51:35.489Z,55.50
2022-11-28T01:54:04.647Z,58.63
2022-11-28T01:56:36.299Z,55.13
2022-11-28T01:59:06.647Z,55.77
2022-11-28T02:01:35.068Z,52.80
2022-11-28T02:04:05.292Z,48.10
2022-11-28T02:06:35.598Z,50.90
2022-11-28T02:09:04.339Z,61.73
2022-11-28T02:11:40.071Z,56.50
2022-11-28T02:14:12.511Z,49.37
2022-11-28T02:16:47.743Z,45.93
2022-11-28T02:19:41.514Z,51.57
2022-11-28T02:22:14.758Z,56.30
2022-11-28T02:24:58.276Z,52.77
2022-11-28T02:27:34.129Z,53.30
2022-11-28T02:33:54.444Z,46.20
2022-11-28T02:36:28.493Z,47.47
2022-11-28T02:39:00.572Z,40.93
2022-11-28T02:41:32.287Z,46.77
2022-11-28T02:44:04.719Z,51.70
2022-11-28T02:46:36.029Z,49.47
2022-11-28T02:49:07.492Z,55.43
2022-11-28T02:51:37.774Z,60.73
2022-11-28T02:54:09.466Z,51.93
2022-11-28T02:56:37.856Z,61.93
2022-11-28T02:59:06.058Z,62.87
2022-11-28T03:01:39.231Z,48.97
2022-11-28T03:04:18.788Z,43.70
2022-11-28T03:06:50.774Z,56.80
2022-11-28T03:09:35.466Z,62.07
2022-11-28T03:12:12.476Z,53.17
2022-11-28T03:14:46.600Z,46.33
2022-11-28T03:17:17.518Z,58.00
2022-11-28T03:19:51.985Z,48.60
2022-11-28T03:22:24.131Z,48.63
2022-11-28T03:24:54.854Z,61.13
2022-11-28T03:27:25.774Z,56.77
2022-11-28T03:29:56.070Z,57.37
2022-11-28T03:32:25.824Z,63.13
2022-11-28T03:34:58.020Z,65.20
2022-11-28T03:37:28.947Z,62.13
2022-11-28T03:40:01.400Z,71.57
2022-11-28T03:42:35.934Z,63.00
2022-11-28T03:45:06.567Z,57.00
2022-11-28T03:47:36.855Z,54.50
2022-11-28T03:50:08.754Z,50.60
2022-11-28T03:52:41.597Z,47.97
2022-11-28T03:55:12.708Z,43.67
2022-11-28T03:57:44.299Z,44.03
2022-11-28T04:00:14.028Z,42.83
2022-11-28T04:02:47.785Z,39.13
2022-11-28T04:05:20.613Z,39.60
2022-11-28T04:07:51.313Z,35.53
2022-11-28T04:10:22.289Z,38.87
2022-11-28T04:12:54.737Z,38.93
2022-11-28T04:15:28.630Z,40.10
2022-11-28T04:17:59.812Z,36.50
2022-11-28T04:20:32.230Z,40.87
2022-11-28T04:23:02.941Z,34.47
2022-11-28T04:25:32.149Z,30.83
2022-11-28T04:28:03.483Z,38.43
2022-11-28T04:30:31.916Z,46.93
2022-11-28T04:33:01.331Z,37.67
2022-11-28T04:35:32.662Z,50.67
2022-11-28T04:38:01.592Z,41.50
2022-11-28T04:40:32.262Z,46.50
2022-11-28T04:43:02.723Z,52.30
2022-11-28T04:45:33.028Z,42.27
2022-11-28T04:48:01.979Z,46.03
2022-11-28T04:50:33.273Z,45.93
2022-11-28T04:53:06.558Z,42.00
2022-11-28T04:55:37.556Z,48.03
2022-11-28T04:58:10.556Z,45.87
2022-11-28T05:00:39.408Z,44.93
2022-11-28T05:03:08.551Z,37.83
2022-11-28T05:05:45.352Z,50.00
2022-11-28T05:08:13.994Z,53.63
2022-11-28T05:10:43.019Z,48.13
2022-11-28T05:13:11.830Z,46.90
2022-11-28T05:15:40.202Z,51.60
2022-11-28T05:18:08.672Z,43.00
2022-11-28T05:20:37.152Z,58.70
2022-11-28T05:23:06.996Z,61.90
2022-11-28T05:25:35.538Z,65.17
2022-11-28T05:28:04.206Z,60.27
2022-11-28T05:30:32.713Z,58.70
2022-11-28T05:33:02.196Z,46.13
2022-11-28T05:35:30.621Z,48.27
2022-11-28T05:37:59.770Z,44.73
2022-11-28T05:40:29.562Z,50.50
2022-11-28T05:42:58.156Z,44.37
2022-11-28T05:45:26.604Z,44.93
2022-11-28T05:47:58.074Z,46.23
2022-11-28T05:50:26.493Z,49.17
2022-11-28T05:52:54.951Z,42.40
2022-11-28T05:55:23.351Z,37.30
2022-11-28T05:57:53.977Z,39.53
2022-11-28T06:00:22.940Z,48.30
2022-11-28T06:02:51.406Z,47.20
2022-11-28T06:05:41.111Z,39.70
2022-11-28T06:08:08.341Z,47.57
2022-11-28T06:10:37.186Z,38.70
2022-11-28T06:13:07.398Z,38.43
2022-11-28T06:15:38.293Z,35.27
2022-11-28T06:18:07.028Z,39.80
2022-11-28T06:20:36.427Z,37.03
2022-11-28T06:23:04.970Z,36.83
2022-11-28T06:25:33.572Z,42.47
2022-11-28T06:28:02.108Z,38.70
2022-11-28T06:30:31.887Z,49.90
2022-11-28T06:33:00.369Z,38.23
2022-11-28T06:35:28.817Z,45.07
2022-11-28T06:37:57.345Z,49.57
2022-11-28T06:40:25.789Z,37.53
2022-11-28T06:42:54.283Z,40.20
2022-11-28T06:45:22.700Z,35.20
2022-11-28T06:47:53.816Z,35.63
2022-11-28T06:50:22.038Z,39.07
2022-11-28T06:52:50.343Z,37.13
2022-11-28T06:55:18.792Z,37.80
2022-11-28T06:57:47.012Z,32.47
2022-11-28T07:00:16.002Z,32.67
2022-11-28T07:02:44.251Z,42.73
2022-11-28T07:05:16.879Z,44.23
2022-11-28T07:07:53.896Z,41.93
2022-11-28T07:10:23.244Z,37.27
2022-11-28T07:12:55.487Z,43.40
2022-11-28T07:15:24.018Z,48.67
2022-11-28T07:17:52.436Z,45.07
2022-11-28T07:20:22.002Z,49.40
2022-11-28T07:22:50.507Z,51.33
2022-11-28T07:25:18.777Z,47.63
2022-11-28T07:27:47.834Z,49.53
2022-11-28T07:30:16.858Z,54.67
2022-11-28T07:32:44.963Z,50.40
2022-11-28T07:35:13.408Z,49.80
2022-11-28T07:37:43.037Z,51.87
2022-11-28T07:40:13.478Z,42.70
2022-11-28T07:42:41.843Z,41.73
2022-11-28T07:45:11.923Z,44.37
2022-11-28T07:47:40.103Z,40.93
2022-11-28T07:50:09.539Z,48.03
2022-11-28T07:52:37.794Z,44.47
2022-11-28T07:55:08.047Z,45.13
2022-11-28T07:57:36.205Z,46.20
2022-11-28T08:00:05.270Z,48.03
2022-11-28T08:02:40.914Z,48.20
2022-11-28T08:05:09.961Z,47.13
2022-11-28T08:07:38.360Z,49.20
2022-11-28T08:10:09.845Z,44.13
2022-11-28T08:12:38.371Z,46.33
2022-11-28T08:15:07.171Z,42.40
2022-11-28T08:17:35.574Z,45.87
2022-11-28T08:20:03.801Z,47.83
2022-11-28T08:22:32.015Z,48.23
2022-11-28T08:25:00.399Z,49.37
2022-11-28T08:27:30.011Z,39.40
2022-11-28T08:29:58.430Z,40.07
2022-11-28T08:32:26.990Z,40.73
2022-11-28T08:34:57.684Z,37.40
2022-11-28T08:37:26.542Z,37.70
2022-11-28T08:39:54.788Z,41.77
2022-11-28T08:42:23.023Z,40.67
2022-11-28T08:44:52.694Z,45.00
2022-11-28T08:47:20.821Z,43.20
2022-11-28T08:49:48.894Z,42.27
2022-11-28T08:52:17.846Z,40.30
2022-11-28T08:54:46.334Z,41.20
2022-11-28T08:57:14.579Z,41.97
2022-11-28T08:59:43.091Z,43.87
2022-11-28T09:02:13.622Z,44.23
2022-11-28T09:04:41.960Z,43.47
2022-11-28T09:07:10.140Z,40.93
2022-11-28T09:09:38.311Z,40.13
2022-11-28T09:12:06.931Z,39.37
2022-11-28T09:14:35.225Z,44.27
2022-11-28T09:17:03.519Z,39.73
2022-11-28T09:19:33.186Z,36.80
2022-11-28T09:22:01.457Z,38.13
2022-11-28T09:24:29.553Z,38.57
2022-11-28T09:26:57.695Z,44.03
2022-11-28T09:29:26.083Z,41.93
2022-11-28T09:31:54.502Z,38.57
2022-11-28T09:34:22.615Z,36.70
2022-11-28T09:36:52.445Z,41.43
2022-11-28T09:39:20.641Z,38.70
2022-11-28T09:41:58.470Z,35.97
2022-11-28T09:44:30.933Z,42.50
2022-11-28T09:47:04.969Z,34.90
2022-11-28T09:49:40.740Z,35.43
2022-11-28T09:52:26.050Z,32.87
2022-11-28T09:55:12.062Z,31.80
2022-11-28T09:57:41.992Z,29.00
2022-11-28T10:00:16.974Z,37.80
2022-11-28T10:02:56.150Z,34.70
2022-11-28T10:05:30.282Z,33.43
2022-11-28T10:08:12.684Z,34.87
2022-11-28T10:10:50.423Z,32.37
2022-11-28T10:13:22.203Z,29.37
2022-11-28T10:15:57.021Z,31.53
2022-11-28T10:18:30.619Z,28.60
2022-11-28T10:21:01.096Z,28.93
2022-11-28T10:23:33.913Z,29.90
2022-11-28T10:26:04.203Z,32.17
2022-11-28T10:28:34.703Z,27.90
2022-11-28T10:31:05.965Z,28.40
2022-11-28T10:33:39.573Z,27.37
2022-11-28T10:36:08.967Z,28.47
2022-11-28T10:42:44.042Z,24.80
2022-11-28T10:45:20.384Z,26.97
2022-11-28T10:48:07.529Z,26.17
2022-11-28T10:50:52.687Z,26.83
2022-11-28T10:53:34.750Z,28.83
2022-11-28T10:56:14.235Z,27.83
2022-11-28T10:58:49.133Z,25.23
2022-11-28T11:01:22.533Z,24.00
2022-11-28T11:03:51.754Z,25.80
2022-11-28T11:06:40.811Z,28.17
2022-11-28T11:09:12.282Z,28.23
2022-11-28T11:11:51.019Z,24.77
2022-11-28T11:14:25.383Z,26.10
2022-11-28T11:16:58.822Z,28.93
2022-11-28T11:19:29.924Z,27.73
2022-11-28T11:22:01.081Z,25.97
2022-11-28T11:24:31.822Z,27.53
2022-11-28T11:27:08.877Z,27.67
2022-11-28T11:29:41.471Z,31.63
2022-11-28T11:32:35.581Z,24.73
2022-11-28T11:35:10.081Z,23.50
2022-11-28T11:37:51.251Z,24.43
2022-11-28T11:40:25.319Z,28.00
2022-11-28T11:42:58.460Z,23.77
2022-11-28T11:45:32.172Z,28.20
2022-11-28T11:48:03.420Z,25.37
2022-11-28T11:50:36.131Z,22.53
2022-11-28T11:53:06.536Z,28.97
2022-11-28T11:55:39.530Z,25.30
2022-11-28T11:58:08.837Z,25.30
2022-11-28T12:00:39.657Z,23.97
2022-11-28T12:03:13.165Z,22.50
2022-11-28T12:06:12.660Z,26.67
2022-11-28T12:08:41.247Z,24.70
2022-11-28T12:11:14.224Z,22.80
2022-11-28T12:13:42.722Z,24.40
2022-11-28T12:16:19.343Z,23.83
2022-11-28T12:18:54.987Z,23.80
2022-11-28T12:21:26.958Z,25.30
2022-11-28T12:24:03.366Z,22.40
2022-11-28T12:26:36.978Z,24.07
2022-11-28T12:29:14.286Z,22.33
2022-11-28T12:31:47.454Z,26.30
2022-11-28T12:34:22.679Z,28.30
2022-11-28T12:36:57.226Z,32.20
2022-11-28T12:39:28.604Z,28.37
2022-11-28T12:42:15.413Z,24.27
2022-11-28T12:44:52.541Z,27.27
2022-11-28T12:47:27.759Z,28.33
2022-11-28T12:50:01.260Z,24.67
2022-11-28T12:52:34.377Z,25.47
2022-11-28T12:55:13.765Z,26.80
2022-11-28T12:57:46.167Z,26.53
2022-11-28T13:00:18.493Z,24.30
2022-11-28T13:02:54.124Z,24.73
2022-11-28T13:05:43.638Z,19.10
2022-11-28T13:08:29.892Z,29.40
2022-11-28T13:11:05.197Z,28.23
2022-11-28T13:13:35.344Z,23.17
2022-11-28T13:16:13.304Z,24.83
2022-11-28T13:18:43.139Z,22.17
2022-11-28T13:21:15.751Z,24.60
2022-11-28T13:23:47.637Z,26.50
2022-11-28T13:26:21.554Z,27.10
2022-11-28T13:28:53.754Z,24.17
2022-11-28T13:31:25.348Z,27.27
2022-11-28T13:33:54.951Z,23.33
2022-11-28T13:39:23.046Z,23.60
2022-11-28T13:42:36.449Z,26.47
2022-11-28T13:44:49.594Z,23.97
2022-11-28T13:47:28.691Z,25.43
2022-11-28T13:50:15.641Z,25.30
2022-11-28T13:52:44.613Z,20.40
2022-11-28T13:55:29.067Z,26.87
2022-11-28T13:57:59.086Z,24.67
2022-11-28T14:00:27.927Z,22.40
2022-11-28T14:02:59.190Z,24.30
2022-11-28T14:05:29.993Z,21.57
2022-11-28T14:07:59.238Z,19.67
2022-11-28T14:10:35.570Z,19.70
2022-11-28T14:13:22.944Z,22.53
2022-11-28T14:16:03.960Z,17.80
2022-11-28T14:18:56.440Z,20.67
2022-11-28T14:21:27.698Z,24.23
2022-11-28T14:23:59.861Z,20.60
2022-11-28T14:26:31.835Z,24.47
2022-11-28T14:29:02.096Z,22.83
2022-11-28T14:31:34.928Z,19.77
2022-11-28T14:34:04.801Z,24.10
2022-11-28T14:36:34.828Z,26.40
2022-11-28T14:39:33.095Z,25.17
2022-11-28T14:42:59.711Z,26.80
2022-11-28T14:45:44.023Z,22.57
2022-11-28T14:48:18.479Z,21.23
2022-11-28T14:51:01.325Z,22.73
2022-11-28T14:53:45.670Z,21.30
2022-11-28T14:56:23.468Z,24.67
2022-11-28T14:58:53.118Z,22.27
2022-11-28T15:01:27.117Z,21.50
2022-11-28T15:04:00.442Z,27.63
2022-11-28T15:06:32.769Z,27.40
2022-11-28T15:09:07.153Z,27.30
2022-11-28T15:11:56.280Z,26.57
2022-11-28T15:14:25.319Z,27.17
2022-11-28T15:16:57.518Z,26.23
2022-11-28T15:19:28.528Z,26.73
2022-11-28T15:21:57.619Z,31.60
2022-11-28T15:24:27.814Z,28.07
2022-11-28T15:26:58.253Z,31.33
2022-11-28T15:29:28.013Z,26.23
2022-11-28T15:31:59.184Z,26.87
2022-11-28T15:34:29.866Z,26.83
2022-11-28T15:37:00.633Z,32.00
2022-11-28T15:39:31.117Z,29.17
2022-11-28T15:42:00.827Z,26.00
2022-11-28T15:44:29.818Z,28.17
2022-11-28T15:47:01.074Z,30.17
2022-11-28T15:49:31.452Z,31.27
2022-11-28T15:52:00.975Z,31.33
2022-11-28T15:54:35.253Z,24.67
2022-11-28T15:57:04.214Z,34.10
2022-11-28T15:59:32.814Z,29.13
2022-11-28T16:02:04.104Z,28.63
2022-11-28T16:04:33.195Z,32.73
2022-11-28T16:07:03.074Z,29.43
2022-11-28T16:09:33.903Z,33.37
2022-11-28T16:12:03.357Z,31.37
2022-11-28T16:14:32.901Z,29.00
2022-11-28T16:17:03.637Z,31.10
2022-11-28T16:19:33.235Z,34.30
2022-11-28T16:22:03.058Z,31.67
2022-11-28T16:24:38.493Z,31.17
2022-11-28T16:27:07.843Z,29.20
2022-11-28T16:29:38.021Z,30.70
2022-11-28T16:32:11.861Z,32.83
2022-11-28T16:34:47.271Z,29.50
2022-11-28T16:37:16.096Z,29.83
2022-11-28T16:39:44.848Z,25.27
2022-11-28T16:42:15.907Z,28.83
2022-11-28T16:44:45.031Z,30.90
2022-11-28T16:47:29.034Z,27.20
2022-11-28T16:50:21.509Z,25.70
2022-11-28T16:52:51.197Z,32.70
2022-11-28T16:55:44.646Z,32.90
2022-11-28T16:58:14.928Z,35.63
2022-11-28T17:00:44.886Z,34.27
2022-11-28T17:03:41.603Z,33.00
2022-11-28T17:06:15.105Z,34.47
2022-11-28T17:08:43.516Z,32.17
2022-11-28T17:11:12.428Z,38.43
2022-11-28T17:13:40.998Z,37.53
2022-11-28T17:16:15.738Z,30.93
2022-11-28T17:18:45.675Z,31.77
2022-11-28T17:21:15.355Z,33.10
2022-11-28T17:23:44.265Z,29.70
2022-11-28T17:26:13.218Z,33.73
2022-11-28T17:28:41.707Z,31.07
2022-11-28T17:31:12.087Z,30.67
2022-11-28T17:33:44.601Z,32.83
2022-11-28T17:36:14.948Z,36.03
2022-11-28T17:38:43.474Z,37.40
2022-11-28T17:41:14.343Z,31.80
2022-11-28T17:43:43.457Z,35.73
2022-11-28T17:46:12.261Z,37.33
2022-11-28T17:48:40.721Z,32.90
2022-11-28T17:51:09.259Z,37.73
2022-11-28T17:53:39.421Z,35.77
2022-11-28T17:56:11.102Z,34.20
2022-11-28T17:58:40.996Z,31.67
2022-11-28T18:01:11.859Z,33.43
2022-11-28T18:03:41.028Z,38.20
2022-11-28T18:06:16.225Z,38.27
2022-11-28T18:08:46.732Z,30.73
2022-11-28T18:11:15.951Z,35.10
2022-11-28T18:13:45.547Z,35.63
2022-11-28T18:16:15.595Z,27.70
2022-11-28T18:18:44.578Z,29.53
2022-11-28T18:21:13.420Z,30.87
2022-11-28T18:23:42.306Z,30.60
2022-11-28T18:26:14.303Z,25.23
2022-11-28T18:28:43.353Z,29.50
2022-11-28T18:31:12.669Z,29.13
2022-11-28T18:33:42.038Z,26.83
2022-11-28T18:36:11.694Z,38.90
2022-11-28T18:38:40.773Z,37.20
2022-11-28T18:41:10.419Z,26.50
2022-11-28T18:43:40.459Z,33.23
2022-11-28T18:46:10.123Z,30.80
2022-11-28T18:48:42.386Z,31.10
2022-11-28T18:51:14.474Z,38.17
2022-11-28T18:53:43.731Z,33.23
2022-11-28T18:56:13.346Z,33.57
2022-11-28T18:58:43.978Z,41.20
2022-11-28T19:01:12.860Z,38.70
2022-11-28T19:03:42.117Z,41.57
2022-11-28T19:06:11.771Z,38.93
2022-11-28T19:08:40.459Z,37.90
2022-11-28T19:11:14.577Z,39.87
2022-11-28T19:13:45.285Z,39.67
2022-11-28T19:16:14.828Z,43.00
2022-11-28T19:18:43.763Z,37.40
2022-11-28T19:21:13.441Z,39.67
2022-11-28T19:23:42.980Z,30.30
2022-11-28T19:26:12.554Z,28.43
2022-11-28T19:28:41.834Z,36.53
2022-11-28T19:31:15.197Z,37.87
2022-11-28T19:33:46.118Z,37.00
2022-11-28T19:36:15.303Z,29.57
2022-11-28T19:38:44.170Z,29.33
2022-11-28T19:41:13.696Z,31.03
2022-11-28T19:43:42.584Z,29.10
2022-11-28T19:46:13.119Z,25.90
2022-11-28T19:48:42.835Z,31.10
2022-11-28T19:51:14.374Z,25.30
2022-11-28T19:53:43.603Z,28.57
2022-11-28T19:56:13.771Z,35.70
2022-11-28T19:58:42.326Z,26.23
2022-11-28T20:01:11.525Z,25.53
2022-11-28T20:03:42.192Z,32.93
2022-11-28T20:06:11.071Z,31.60
2022-11-28T20:08:40.196Z,32.03
2022-11-28T20:11:12.891Z,30.30
2022-11-28T20:13:41.762Z,26.43
2022-11-28T20:16:11.220Z,29.57
2022-11-28T20:18:42.247Z,29.70
2022-11-28T20:21:12.666Z,31.83
2022-11-28T20:23:41.785Z,44.07
2022-11-28T20:26:10.919Z,34.33
2022-11-28T20:28:40.404Z,30.57
2022-11-28T20:31:09.637Z,30.90
2022-11-28T20:33:38.202Z,30.53
2022-11-28T20:36:10.042Z,36.30
2022-11-28T20:38:38.819Z,37.73
2022-11-28T20:41:10.161Z,36.07
2022-11-28T20:43:40.438Z,38.23
2022-11-28T20:46:09.859Z,32.67
2022-11-28T20:48:38.866Z,34.50
2022-11-28T20:51:10.870Z,27.73
2022-11-28T20:53:41.232Z,32.50
2022-11-28T20:56:11.168Z,37.23
2022-11-28T20:58:39.672Z,29.60
2022-11-28T21:01:08.419Z,39.53
2022-11-28T21:03:37.078Z,32.67
2022-11-28T21:06:05.599Z,33.03
2022-11-28T21:08:35.431Z,35.23
2022-11-28T21:11:06.062Z,39.67
2022-11-28T21:13:34.917Z,35.87
2022-11-28T21:16:06.370Z,38.77
2022-11-28T21:18:35.477Z,37.40
2022-11-28T21:21:08.014Z,38.97
2022-11-28T21:23:38.746Z,35.97
2022-11-28T21:26:07.837Z,34.83
2022-11-28T21:28:36.683Z,47.70
2022-11-28T21:31:06.892Z,34.00
2022-11-28T21:33:35.338Z,32.43
2022-11-28T21:36:04.043Z,34.67
2022-11-28T21:38:32.748Z,29.97
2022-11-28T21:41:04.505Z,31.20
2022-11-28T21:43:33.880Z,29.73
2022-11-28T21:46:03.959Z,31.47
2022-11-28T21:48:33.254Z,37.40
2022-11-28T21:51:02.314Z,34.93
2022-11-28T21:53:33.066Z,32.17
2022-11-28T21:56:03.196Z,29.13
2022-11-28T21:58:32.779Z,31.47
2022-11-28T22:01:02.011Z,29.90
2022-11-28T22:03:31.462Z,29.10
2022-11-28T22:06:04.284Z,24.00
2022-11-28T22:08:33.281Z,23.83
2022-11-28T22:11:04.837Z,24.57
2022-11-28T22:13:33.846Z,25.23
2022-11-28T22:16:02.526Z,25.17
2022-11-28T22:18:31.605Z,31.20
2022-11-28T22:21:06.488Z,29.53
2022-11-28T22:23:41.366Z,26.90
2022-11-28T22:26:12.454Z,27.60
2022-11-28T22:28:41.579Z,29.53
2022-11-28T22:31:12.972Z,29.27
2022-11-28T22:33:41.909Z,27.73
2022-11-28T22:36:11.625Z,27.20
2022-11-28T22:38:40.510Z,24.10
2022-11-28T22:41:09.512Z,28.10
2022-11-28T22:43:39.627Z,26.93
2022-11-28T22:46:10.789Z,26.50
2022-11-28T22:48:57.722Z,26.57
2022-11-28T22:51:27.337Z,26.17
2022-11-28T22:53:56.444Z,25.17
2022-11-28T22:56:26.934Z,26.17
2022-11-28T22:58:57.071Z,27.00
2022-11-28T23:01:26.581Z,27.43
2022-11-28T23:03:55.630Z,29.73
2022-11-28T23:06:25.873Z,29.00
2022-11-28T23:08:57.104Z,25.00
2022-11-28T23:11:28.717Z,25.53
2022-11-28T23:13:58.542Z,24.17
2022-11-28T23:16:30.102Z,24.93
2022-11-28T23:18:59.323Z,29.50
2022-11-28T23:21:28.357Z,25.50
2022-11-28T23:23:57.065Z,27.23
2022-11-28T23:26:28.444Z,22.80
2022-11-28T23:29:00.085Z,21.73
2022-11-28T23:31:30.461Z,22.07
2022-11-28T23:33:59.611Z,22.43
2022-11-28T23:36:29.973Z,26.17
2022-11-28T23:39:01.060Z,23.93
2022-11-28T23:41:30.626Z,23.50
2022-11-28T23:44:00.752Z,24.67
2022-11-28T23:46:29.646Z,21.93
2022-11-28T23:48:58.351Z,21.43
2022-11-28T23:51:27.932Z,24.63
2022-11-28T23:53:56.720Z,20.30
2022-11-28T23:56:29.531Z,20.53
2022-11-28T23:58:58.883Z,19.63
